sensor_id;sensor_type;location;lat;lon;timestamp;P1;durP1;ratioP1;P2;durP2;ratioP2
10144;SDS011;5113;41.822;23.564;2023-09-19T00:00:36;5.97;;;5.37;;
10144;SDS011;5113;41.822;23.564;2023-09-19T00:03:42;5.47;;;4.80;;
10144;SDS011;5113;41.822;23.564;2023-09-19T00:06:49;6.43;;;5.83;;
10144;SDS011;5113;41.822;23.564;2023-09-19T00:09:57;4.90;;;4.40;;
10144;SDS011;5113;41.822;23.564;2023-09-19T00:13:06;5.83;;;5.10;;
10144;SDS011;5113;41.822;23.564;2023-09-19T00:16:12;7.00;;;6.30;;
10144;SDS011;5113;41.822;23.564;2023-09-19T00:19:20;6.70;;;6.07;;
10144;SDS011;5113;41.822;23.564;2023-09-19T00:22:27;7.37;;;5.53;;
10144;SDS011;5113;41.822;23.564;2023-09-19T00:25:33;7.67;;;5.87;;
10144;SDS011;5113;41.822;23.564;2023-09-19T00:28:42;5.57;;;5.07;;
10144;SDS011;5113;41.822;23.564;2023-09-19T00:31:49;6.80;;;6.10;;
10144;SDS011;5113;41.822;23.564;2023-09-19T00:34:55;6.27;;;5.67;;
10144;SDS011;5113;41.822;23.564;2023-09-19T00:38:02;5.67;;;5.07;;
10144;SDS011;5113;41.822;23.564;2023-09-19T00:41:09;5.77;;;5.07;;
10144;SDS011;5113;41.822;23.564;2023-09-19T00:44:18;5.23;;;4.83;;
10144;SDS011;5113;41.822;23.564;2023-09-19T00:47:27;6.23;;;5.63;;
10144;SDS011;5113;41.822;23.564;2023-09-19T00:50:34;7.40;;;4.53;;
10144;SDS011;5113;41.822;23.564;2023-09-19T00:53:41;5.27;;;4.80;;
10144;SDS011;5113;41.822;23.564;2023-09-19T00:56:50;4.83;;;4.33;;
10144;SDS011;5113;41.822;23.564;2023-09-19T01:00:00;5.40;;;4.90;;
10144;SDS011;5113;41.822;23.564;2023-09-19T01:03:09;5.63;;;5.03;;
10144;SDS011;5113;41.822;23.564;2023-09-19T01:06:17;5.73;;;5.03;;
10144;SDS011;5113;41.822;23.564;2023-09-19T01:09:24;5.80;;;5.20;;
10144;SDS011;5113;41.822;23.564;2023-09-19T01:12:33;6.13;;;5.53;;
10144;SDS011;5113;41.822;23.564;2023-09-19T01:15:48;5.37;;;4.87;;
10144;SDS011;5113;41.822;23.564;2023-09-19T01:19:02;4.50;;;4.10;;
10144;SDS011;5113;41.822;23.564;2023-09-19T01:22:29;5.20;;;4.73;;
10144;SDS011;5113;41.822;23.564;2023-09-19T01:25:59;6.23;;;4.83;;
10144;SDS011;5113;41.822;23.564;2023-09-19T01:29:17;5.07;;;4.53;;
10144;SDS011;5113;41.822;23.564;2023-09-19T01:32:40;4.93;;;4.50;;
10144;SDS011;5113;41.822;23.564;2023-09-19T01:35:50;6.27;;;4.70;;
10144;SDS011;5113;41.822;23.564;2023-09-19T01:38:57;6.63;;;5.13;;
10144;SDS011;5113;41.822;23.564;2023-09-19T01:42:12;5.53;;;5.03;;
10144;SDS011;5113;41.822;23.564;2023-09-19T01:45:31;4.70;;;4.20;;
10144;SDS011;5113;41.822;23.564;2023-09-19T01:48:46;7.27;;;3.83;;
10144;SDS011;5113;41.822;23.564;2023-09-19T01:52:02;4.57;;;4.03;;
10144;SDS011;5113;41.822;23.564;2023-09-19T01:55:16;4.00;;;3.70;;
10144;SDS011;5113;41.822;23.564;2023-09-19T01:58:27;5.07;;;4.57;;
10144;SDS011;5113;41.822;23.564;2023-09-19T02:01:40;4.47;;;4.17;;
10144;SDS011;5113;41.822;23.564;2023-09-19T02:04:52;4.83;;;4.43;;
10144;SDS011;5113;41.822;23.564;2023-09-19T02:08:00;4.20;;;3.87;;
10144;SDS011;5113;41.822;23.564;2023-09-19T02:11:07;4.93;;;4.53;;
10144;SDS011;5113;41.822;23.564;2023-09-19T02:14:14;4.93;;;4.50;;
10144;SDS011;5113;41.822;23.564;2023-09-19T02:17:20;4.93;;;4.40;;
10144;SDS011;5113;41.822;23.564;2023-09-19T02:20:28;5.20;;;4.73;;
10144;SDS011;5113;41.822;23.564;2023-09-19T02:23:37;4.50;;;4.10;;
10144;SDS011;5113;41.822;23.564;2023-09-19T02:26:44;5.53;;;4.93;;
10144;SDS011;5113;41.822;23.564;2023-09-19T02:29:51;5.10;;;4.27;;
10144;SDS011;5113;41.822;23.564;2023-09-19T02:32:58;7.00;;;5.47;;
10144;SDS011;5113;41.822;23.564;2023-09-19T02:36:09;5.20;;;4.70;;
10144;SDS011;5113;41.822;23.564;2023-09-19T02:39:15;5.43;;;4.77;;
10144;SDS011;5113;41.822;23.564;2023-09-19T02:42:22;4.97;;;4.47;;
10144;SDS011;5113;41.822;23.564;2023-09-19T02:45:28;5.07;;;4.47;;
10144;SDS011;5113;41.822;23.564;2023-09-19T02:48:35;7.13;;;5.37;;
10144;SDS011;5113;41.822;23.564;2023-09-19T02:51:42;6.23;;;5.33;;
10144;SDS011;5113;41.822;23.564;2023-09-19T02:54:50;5.67;;;4.80;;
10144;SDS011;5113;41.822;23.564;2023-09-19T02:57:56;5.33;;;4.83;;
10144;SDS011;5113;41.822;23.564;2023-09-19T03:01:07;7.13;;;6.10;;
10144;SDS011;5113;41.822;23.564;2023-09-19T03:04:16;5.87;;;5.23;;
10144;SDS011;5113;41.822;23.564;2023-09-19T03:07:26;6.00;;;4.87;;
10144;SDS011;5113;41.822;23.564;2023-09-19T03:10:32;6.07;;;4.57;;
10144;SDS011;5113;41.822;23.564;2023-09-19T03:13:42;5.20;;;4.70;;
10144;SDS011;5113;41.822;23.564;2023-09-19T03:16:50;4.07;;;3.77;;
10144;SDS011;5113;41.822;23.564;2023-09-19T03:19:57;4.87;;;4.37;;
10144;SDS011;5113;41.822;23.564;2023-09-19T03:23:05;4.20;;;3.80;;
10144;SDS011;5113;41.822;23.564;2023-09-19T03:26:12;4.90;;;4.40;;
10144;SDS011;5113;41.822;23.564;2023-09-19T03:29:20;5.37;;;4.77;;
10144;SDS011;5113;41.822;23.564;2023-09-19T03:32:27;5.73;;;4.63;;
10144;SDS011;5113;41.822;23.564;2023-09-19T03:35:33;5.70;;;4.90;;
10144;SDS011;5113;41.822;23.564;2023-09-19T03:38:42;5.93;;;5.23;;
10144;SDS011;5113;41.822;23.564;2023-09-19T03:41:49;5.90;;;5.30;;
10144;SDS011;5113;41.822;23.564;2023-09-19T03:44:55;6.00;;;5.30;;
10144;SDS011;5113;41.822;23.564;2023-09-19T03:48:06;6.07;;;5.03;;
10144;SDS011;5113;41.822;23.564;2023-09-19T03:51:14;8.30;;;6.40;;
10144;SDS011;5113;41.822;23.564;2023-09-19T03:54:22;7.60;;;6.27;;
10144;SDS011;5113;41.822;23.564;2023-09-19T03:57:28;7.07;;;6.03;;
10144;SDS011;5113;41.822;23.564;2023-09-19T04:00:35;6.10;;;5.47;;
10144;SDS011;5113;41.822;23.564;2023-09-19T04:03:43;6.50;;;5.37;;
10144;SDS011;5113;41.822;23.564;2023-09-19T04:06:52;9.03;;;5.47;;
10144;SDS011;5113;41.822;23.564;2023-09-19T04:10:00;6.60;;;5.83;;
10144;SDS011;5113;41.822;23.564;2023-09-19T04:13:07;11.63;;;6.97;;
10144;SDS011;5113;41.822;23.564;2023-09-19T04:16:14;8.77;;;7.23;;
10144;SDS011;5113;41.822;23.564;2023-09-19T04:19:20;9.53;;;6.83;;
10144;SDS011;5113;41.822;23.564;2023-09-19T04:22:27;7.77;;;6.10;;
10144;SDS011;5113;41.822;23.564;2023-09-19T04:25:35;9.53;;;5.80;;
10144;SDS011;5113;41.822;23.564;2023-09-19T04:28:43;8.27;;;5.67;;
10144;SDS011;5113;41.822;23.564;2023-09-19T04:31:50;8.10;;;5.80;;
10144;SDS011;5113;41.822;23.564;2023-09-19T04:34:57;7.33;;;5.47;;
10144;SDS011;5113;41.822;23.564;2023-09-19T04:38:07;7.60;;;5.70;;
10144;SDS011;5113;41.822;23.564;2023-09-19T04:41:14;30.80;;;20.40;;
10144;SDS011;5113;41.822;23.564;2023-09-19T04:44:21;29.43;;;20.47;;
10144;SDS011;5113;41.822;23.564;2023-09-19T04:47:28;23.63;;;15.10;;
10144;SDS011;5113;41.822;23.564;2023-09-19T04:50:35;11.93;;;8.57;;
10144;SDS011;5113;41.822;23.564;2023-09-19T04:53:41;7.30;;;6.60;;
10144;SDS011;5113;41.822;23.564;2023-09-19T04:56:50;5.70;;;5.20;;
10144;SDS011;5113;41.822;23.564;2023-09-19T04:59:56;6.73;;;5.87;;
10144;SDS011;5113;41.822;23.564;2023-09-19T05:03:03;10.57;;;6.97;;
10144;SDS011;5113;41.822;23.564;2023-09-19T05:06:13;7.40;;;6.63;;
10144;SDS011;5113;41.822;23.564;2023-09-19T05:09:19;6.97;;;6.10;;
10144;SDS011;5113;41.822;23.564;2023-09-19T05:12:27;8.07;;;6.87;;
10144;SDS011;5113;41.822;23.564;2023-09-19T05:15:34;8.00;;;5.23;;
10144;SDS011;5113;41.822;23.564;2023-09-19T05:18:41;7.43;;;5.73;;
10144;SDS011;5113;41.822;23.564;2023-09-19T05:21:47;6.07;;;5.33;;
10144;SDS011;5113;41.822;23.564;2023-09-19T05:24:54;7.00;;;5.47;;
10144;SDS011;5113;41.822;23.564;2023-09-19T05:28:02;7.23;;;5.70;;
10144;SDS011;5113;41.822;23.564;2023-09-19T05:31:10;5.33;;;4.83;;
10144;SDS011;5113;41.822;23.564;2023-09-19T05:34:16;6.43;;;5.73;;
10144;SDS011;5113;41.822;23.564;2023-09-19T05:37:23;6.27;;;5.53;;
10144;SDS011;5113;41.822;23.564;2023-09-19T05:40:30;14.63;;;8.23;;
10144;SDS011;5113;41.822;23.564;2023-09-19T05:43:38;11.90;;;7.50;;
10144;SDS011;5113;41.822;23.564;2023-09-19T05:46:46;12.03;;;8.07;;
10144;SDS011;5113;41.822;23.564;2023-09-19T05:49:53;6.00;;;5.40;;
10144;SDS011;5113;41.822;23.564;2023-09-19T05:52:59;9.43;;;5.30;;
10144;SDS011;5113;41.822;23.564;2023-09-19T05:56:06;6.23;;;5.30;;
10144;SDS011;5113;41.822;23.564;2023-09-19T05:59:15;5.60;;;5.10;;
10144;SDS011;5113;41.822;23.564;2023-09-19T06:02:22;10.23;;;5.57;;
10144;SDS011;5113;41.822;23.564;2023-09-19T06:05:28;7.00;;;6.20;;
10144;SDS011;5113;41.822;23.564;2023-09-19T06:08:36;8.33;;;6.10;;
10144;SDS011;5113;41.822;23.564;2023-09-19T06:11:43;7.10;;;5.90;;
10144;SDS011;5113;41.822;23.564;2023-09-19T06:14:51;6.90;;;6.03;;
10144;SDS011;5113;41.822;23.564;2023-09-19T06:17:57;5.90;;;5.30;;
10144;SDS011;5113;41.822;23.564;2023-09-19T06:21:04;6.73;;;5.97;;
10144;SDS011;5113;41.822;23.564;2023-09-19T06:24:12;4.87;;;4.43;;
10144;SDS011;5113;41.822;23.564;2023-09-19T06:27:18;5.73;;;5.20;;
10144;SDS011;5113;41.822;23.564;2023-09-19T06:30:28;11.30;;;5.33;;
10144;SDS011;5113;41.822;23.564;2023-09-19T06:33:35;5.50;;;5.00;;
10144;SDS011;5113;41.822;23.564;2023-09-19T06:36:44;9.17;;;5.43;;
10144;SDS011;5113;41.822;23.564;2023-09-19T06:39:50;4.93;;;4.53;;
10144;SDS011;5113;41.822;23.564;2023-09-19T06:42:57;7.17;;;6.17;;
10144;SDS011;5113;41.822;23.564;2023-09-19T06:46:08;7.03;;;5.70;;
10144;SDS011;5113;41.822;23.564;2023-09-19T06:49:17;8.10;;;6.20;;
10144;SDS011;5113;41.822;23.564;2023-09-19T06:52:24;7.40;;;5.83;;
10144;SDS011;5113;41.822;23.564;2023-09-19T06:55:32;7.13;;;6.17;;
10144;SDS011;5113;41.822;23.564;2023-09-19T06:58:39;7.90;;;6.77;;
10144;SDS011;5113;41.822;23.564;2023-09-19T07:01:50;7.43;;;6.03;;
10144;SDS011;5113;41.822;23.564;2023-09-19T07:04:57;5.63;;;4.83;;
10144;SDS011;5113;41.822;23.564;2023-09-19T07:08:04;12.03;;;10.67;;
10144;SDS011;5113;41.822;23.564;2023-09-19T07:11:11;11.47;;;7.70;;
10144;SDS011;5113;41.822;23.564;2023-09-19T07:14:19;9.30;;;7.10;;
10144;SDS011;5113;41.822;23.564;2023-09-19T07:17:27;4.60;;;4.17;;
10144;SDS011;5113;41.822;23.564;2023-09-19T07:20:34;4.83;;;4.43;;
10144;SDS011;5113;41.822;23.564;2023-09-19T07:23:42;5.00;;;4.50;;
10144;SDS011;5113;41.822;23.564;2023-09-19T07:26:48;4.63;;;4.23;;
10144;SDS011;5113;41.822;23.564;2023-09-19T07:29:55;5.23;;;4.63;;
10144;SDS011;5113;41.822;23.564;2023-09-19T07:33:03;6.23;;;4.40;;
10144;SDS011;5113;41.822;23.564;2023-09-19T07:36:10;8.67;;;5.00;;
10144;SDS011;5113;41.822;23.564;2023-09-19T07:39:17;5.33;;;4.50;;
10144;SDS011;5113;41.822;23.564;2023-09-19T07:42:27;5.63;;;5.10;;
10144;SDS011;5113;41.822;23.564;2023-09-19T07:45:34;4.53;;;4.00;;
10144;SDS011;5113;41.822;23.564;2023-09-19T07:48:42;4.30;;;3.93;;
10144;SDS011;5113;41.822;23.564;2023-09-19T07:51:53;4.73;;;4.33;;
10144;SDS011;5113;41.822;23.564;2023-09-19T07:55:01;4.23;;;3.90;;
10144;SDS011;5113;41.822;23.564;2023-09-19T07:58:13;5.70;;;5.13;;
10144;SDS011;5113;41.822;23.564;2023-09-19T08:01:20;5.23;;;4.80;;
10144;SDS011;5113;41.822;23.564;2023-09-19T08:04:30;8.60;;;7.63;;
10144;SDS011;5113;41.822;23.564;2023-09-19T08:07:38;4.80;;;4.30;;
10144;SDS011;5113;41.822;23.564;2023-09-19T08:10:46;6.50;;;4.63;;
10144;SDS011;5113;41.822;23.564;2023-09-19T08:14:00;5.73;;;4.93;;
10144;SDS011;5113;41.822;23.564;2023-09-19T08:17:07;3.97;;;3.67;;
10144;SDS011;5113;41.822;23.564;2023-09-19T08:20:15;4.13;;;3.83;;
10144;SDS011;5113;41.822;23.564;2023-09-19T08:23:22;3.50;;;3.27;;
10144;SDS011;5113;41.822;23.564;2023-09-19T08:26:29;4.87;;;4.47;;
10144;SDS011;5113;41.822;23.564;2023-09-19T08:29:36;8.43;;;5.47;;
10144;SDS011;5113;41.822;23.564;2023-09-19T08:32:43;4.83;;;4.43;;
10144;SDS011;5113;41.822;23.564;2023-09-19T08:35:52;4.63;;;4.27;;
10144;SDS011;5113;41.822;23.564;2023-09-19T08:39:01;5.57;;;4.20;;
10144;SDS011;5113;41.822;23.564;2023-09-19T08:42:08;3.53;;;3.23;;
10144;SDS011;5113;41.822;23.564;2023-09-19T08:45:16;4.67;;;4.30;;
10144;SDS011;5113;41.822;23.564;2023-09-19T08:48:23;4.13;;;3.80;;
10144;SDS011;5113;41.822;23.564;2023-09-19T08:51:39;4.70;;;4.30;;
10144;SDS011;5113;41.822;23.564;2023-09-19T08:54:49;4.13;;;3.83;;
10144;SDS011;5113;41.822;23.564;2023-09-19T08:58:00;4.30;;;3.90;;
10144;SDS011;5113;41.822;23.564;2023-09-19T09:01:07;4.03;;;3.73;;
10144;SDS011;5113;41.822;23.564;2023-09-19T09:04:16;4.37;;;4.07;;
10144;SDS011;5113;41.822;23.564;2023-09-19T09:07:26;4.20;;;3.90;;
10144;SDS011;5113;41.822;23.564;2023-09-19T09:10:33;5.30;;;4.80;;
10144;SDS011;5113;41.822;23.564;2023-09-19T09:13:39;5.13;;;4.63;;
10144;SDS011;5113;41.822;23.564;2023-09-19T09:16:46;5.03;;;4.53;;
10144;SDS011;5113;41.822;23.564;2023-09-19T09:19:53;4.80;;;4.20;;
10144;SDS011;5113;41.822;23.564;2023-09-19T09:23:01;4.97;;;4.53;;
10144;SDS011;5113;41.822;23.564;2023-09-19T09:26:09;4.30;;;3.97;;
10144;SDS011;5113;41.822;23.564;2023-09-19T09:29:15;4.60;;;4.17;;
10144;SDS011;5113;41.822;23.564;2023-09-19T09:32:25;6.43;;;5.17;;
10144;SDS011;5113;41.822;23.564;2023-09-19T09:35:33;5.80;;;4.53;;
10144;SDS011;5113;41.822;23.564;2023-09-19T09:38:46;5.13;;;4.33;;
10144;SDS011;5113;41.822;23.564;2023-09-19T09:41:54;4.80;;;4.40;;
10144;SDS011;5113;41.822;23.564;2023-09-19T09:48:33;6.17;;;4.40;;
10144;SDS011;5113;41.822;23.564;2023-09-19T09:51:44;4.60;;;4.20;;
10144;SDS011;5113;41.822;23.564;2023-09-19T09:55:01;4.47;;;4.07;;
10144;SDS011;5113;41.822;23.564;2023-09-19T09:58:17;4.90;;;4.50;;
10144;SDS011;5113;41.822;23.564;2023-09-19T10:01:28;4.57;;;4.07;;
10144;SDS011;5113;41.822;23.564;2023-09-19T10:04:54;4.63;;;4.23;;
10144;SDS011;5113;41.822;23.564;2023-09-19T10:08:15;4.13;;;3.80;;
10144;SDS011;5113;41.822;23.564;2023-09-19T10:11:26;4.30;;;4.00;;
10144;SDS011;5113;41.822;23.564;2023-09-19T10:14:35;6.13;;;3.97;;
10144;SDS011;5113;41.822;23.564;2023-09-19T10:17:43;4.40;;;4.00;;
10144;SDS011;5113;41.822;23.564;2023-09-19T10:20:51;4.33;;;3.93;;
10144;SDS011;5113;41.822;23.564;2023-09-19T10:23:58;5.00;;;4.23;;
10144;SDS011;5113;41.822;23.564;2023-09-19T10:27:06;6.40;;;4.53;;
10144;SDS011;5113;41.822;23.564;2023-09-19T10:30:14;4.47;;;4.07;;
10144;SDS011;5113;41.822;23.564;2023-09-19T10:33:24;4.63;;;4.23;;
10144;SDS011;5113;41.822;23.564;2023-09-19T10:36:32;4.03;;;3.65;;
10144;SDS011;5113;41.822;23.564;2023-09-19T10:39:40;3.78;;;3.50;;
10144;SDS011;5113;41.822;23.564;2023-09-19T10:42:48;4.22;;;3.90;;
10144;SDS011;5113;41.822;23.564;2023-09-19T10:45:57;5.32;;;3.95;;
10144;SDS011;5113;41.822;23.564;2023-09-19T10:49:08;3.75;;;3.45;;
10144;SDS011;5113;41.822;23.564;2023-09-19T10:52:18;4.38;;;4.07;;
10144;SDS011;5113;41.822;23.564;2023-09-19T10:55:30;4.15;;;3.83;;
10144;SDS011;5113;41.822;23.564;2023-09-19T10:58:41;4.22;;;3.90;;
10144;SDS011;5113;41.822;23.564;2023-09-19T11:01:50;4.65;;;4.25;;
10144;SDS011;5113;41.822;23.564;2023-09-19T11:05:05;3.92;;;3.63;;
10144;SDS011;5113;41.822;23.564;2023-09-19T11:08:18;4.25;;;3.95;;
10144;SDS011;5113;41.822;23.564;2023-09-19T11:11:43;4.30;;;4.00;;
10144;SDS011;5113;41.822;23.564;2023-09-19T11:14:59;4.90;;;4.30;;
10144;SDS011;5113;41.822;23.564;2023-09-19T11:21:52;5.75;;;4.55;;
10144;SDS011;5113;41.822;23.564;2023-09-19T11:28:44;4.78;;;4.28;;
10144;SDS011;5113;41.822;23.564;2023-09-19T11:31:52;4.10;;;3.80;;
10144;SDS011;5113;41.822;23.564;2023-09-19T11:35:06;7.32;;;6.15;;
10144;SDS011;5113;41.822;23.564;2023-09-19T11:38:13;4.82;;;4.32;;
10144;SDS011;5113;41.822;23.564;2023-09-19T11:41:37;5.60;;;4.07;;
10144;SDS011;5113;41.822;23.564;2023-09-19T11:44:43;4.25;;;3.90;;
10144;SDS011;5113;41.822;23.564;2023-09-19T11:47:52;3.80;;;3.47;;
10144;SDS011;5113;41.822;23.564;2023-09-19T11:50:58;4.25;;;3.92;;
10144;SDS011;5113;41.822;23.564;2023-09-19T11:54:12;3.70;;;3.40;;
10144;SDS011;5113;41.822;23.564;2023-09-19T11:57:23;4.28;;;3.97;;
10144;SDS011;5113;41.822;23.564;2023-09-19T12:00:30;4.40;;;4.00;;
10144;SDS011;5113;41.822;23.564;2023-09-19T12:03:39;4.28;;;3.97;;
10144;SDS011;5113;41.822;23.564;2023-09-19T12:06:56;5.65;;;5.18;;
10144;SDS011;5113;41.822;23.564;2023-09-19T12:10:03;4.20;;;3.90;;
10144;SDS011;5113;41.822;23.564;2023-09-19T12:13:17;4.75;;;4.35;;
10144;SDS011;5113;41.822;23.564;2023-09-19T12:16:23;3.70;;;3.50;;
10144;SDS011;5113;41.822;23.564;2023-09-19T12:19:32;4.50;;;4.20;;
10144;SDS011;5113;41.822;23.564;2023-09-19T12:22:39;7.18;;;6.10;;
10144;SDS011;5113;41.822;23.564;2023-09-19T12:25:49;7.70;;;6.93;;
10144;SDS011;5113;41.822;23.564;2023-09-19T12:28:58;7.35;;;6.55;;
10144;SDS011;5113;41.822;23.564;2023-09-19T12:32:06;6.53;;;5.78;;
10144;SDS011;5113;41.822;23.564;2023-09-19T12:35:27;5.90;;;5.10;;
10144;SDS011;5113;41.822;23.564;2023-09-19T12:38:35;5.13;;;4.63;;
10144;SDS011;5113;41.822;23.564;2023-09-19T12:41:41;5.43;;;4.95;;
10144;SDS011;5113;41.822;23.564;2023-09-19T12:44:52;5.50;;;4.88;;
10144;SDS011;5113;41.822;23.564;2023-09-19T12:48:19;4.82;;;4.43;;
10144;SDS011;5113;41.822;23.564;2023-09-19T12:51:34;4.75;;;4.40;;
10144;SDS011;5113;41.822;23.564;2023-09-19T12:54:41;5.15;;;4.65;;
10144;SDS011;5113;41.822;23.564;2023-09-19T12:57:58;4.50;;;4.10;;
10144;SDS011;5113;41.822;23.564;2023-09-19T13:01:13;5.18;;;4.68;;
10144;SDS011;5113;41.822;23.564;2023-09-19T13:04:20;4.50;;;4.20;;
10144;SDS011;5113;41.822;23.564;2023-09-19T13:07:41;4.85;;;4.45;;
10144;SDS011;5113;41.822;23.564;2023-09-19T13:11:07;5.28;;;4.10;;
10144;SDS011;5113;41.822;23.564;2023-09-19T13:14:18;4.50;;;4.10;;
10144;SDS011;5113;41.822;23.564;2023-09-19T13:17:26;5.55;;;5.05;;
10144;SDS011;5113;41.822;23.564;2023-09-19T13:24:21;5.05;;;4.18;;
10144;SDS011;5113;41.822;23.564;2023-09-19T13:27:32;5.45;;;5.05;;
10144;SDS011;5113;41.822;23.564;2023-09-19T13:30:39;4.75;;;4.38;;
10144;SDS011;5113;41.822;23.564;2023-09-19T13:33:49;4.55;;;4.25;;
10144;SDS011;5113;41.822;23.564;2023-09-19T13:36:56;5.45;;;5.05;;
10144;SDS011;5113;41.822;23.564;2023-09-19T13:40:05;5.32;;;4.82;;
10144;SDS011;5113;41.822;23.564;2023-09-19T13:43:13;4.88;;;4.47;;
10144;SDS011;5113;41.822;23.564;2023-09-19T13:46:20;4.63;;;4.32;;
10144;SDS011;5113;41.822;23.564;2023-09-19T13:49:30;4.88;;;4.38;;
10144;SDS011;5113;41.822;23.564;2023-09-19T13:52:37;5.45;;;4.95;;
10144;SDS011;5113;41.822;23.564;2023-09-19T13:55:45;4.82;;;4.45;;
10144;SDS011;5113;41.822;23.564;2023-09-19T13:58:53;4.60;;;4.22;;
10144;SDS011;5113;41.822;23.564;2023-09-19T14:01:59;4.85;;;4.47;;
10144;SDS011;5113;41.822;23.564;2023-09-19T14:05:07;4.88;;;4.47;;
10144;SDS011;5113;41.822;23.564;2023-09-19T14:08:15;4.85;;;4.32;;
10144;SDS011;5113;41.822;23.564;2023-09-19T14:11:23;4.45;;;4.15;;
10144;SDS011;5113;41.822;23.564;2023-09-19T14:14:31;4.68;;;4.20;;
10144;SDS011;5113;41.822;23.564;2023-09-19T14:17:37;4.53;;;4.13;;
10144;SDS011;5113;41.822;23.564;2023-09-19T14:20:44;6.40;;;5.15;;
10144;SDS011;5113;41.822;23.564;2023-09-19T14:23:51;6.75;;;5.00;;
10144;SDS011;5113;41.822;23.564;2023-09-19T14:27:00;4.13;;;3.80;;
10144;SDS011;5113;41.822;23.564;2023-09-19T14:30:08;5.82;;;4.82;;
10144;SDS011;5113;41.822;23.564;2023-09-19T14:33:15;4.13;;;3.83;;
10144;SDS011;5113;41.822;23.564;2023-09-19T14:36:21;4.80;;;4.40;;
10144;SDS011;5113;41.822;23.564;2023-09-19T14:39:29;6.80;;;5.88;;
10144;SDS011;5113;41.822;23.564;2023-09-19T14:42:38;7.30;;;6.60;;
10144;SDS011;5113;41.822;23.564;2023-09-19T14:45:45;5.78;;;4.13;;
10144;SDS011;5113;41.822;23.564;2023-09-19T14:48:52;5.10;;;4.70;;
10144;SDS011;5113;41.822;23.564;2023-09-19T14:51:58;4.82;;;4.43;;
10144;SDS011;5113;41.822;23.564;2023-09-19T14:55:05;5.20;;;4.80;;
10144;SDS011;5113;41.822;23.564;2023-09-19T14:58:15;5.25;;;4.45;;
10144;SDS011;5113;41.822;23.564;2023-09-19T15:01:21;6.57;;;4.45;;
10144;SDS011;5113;41.822;23.564;2023-09-19T15:04:28;4.75;;;4.35;;
10144;SDS011;5113;41.822;23.564;2023-09-19T15:07:35;4.05;;;3.75;;
10144;SDS011;5113;41.822;23.564;2023-09-19T15:10:49;4.10;;;3.80;;
10144;SDS011;5113;41.822;23.564;2023-09-19T15:13:59;5.30;;;4.80;;
10144;SDS011;5113;41.822;23.564;2023-09-19T15:17:08;5.38;;;4.88;;
10144;SDS011;5113;41.822;23.564;2023-09-19T15:20:15;6.55;;;5.43;;
10144;SDS011;5113;41.822;23.564;2023-09-19T15:23:22;4.95;;;4.35;;
10144;SDS011;5113;41.822;23.564;2023-09-19T15:26:36;5.10;;;4.63;;
10144;SDS011;5113;41.822;23.564;2023-09-19T15:29:45;5.03;;;4.63;;
10144;SDS011;5113;41.822;23.564;2023-09-19T15:32:51;4.70;;;4.30;;
10144;SDS011;5113;41.822;23.564;2023-09-19T15:36:01;10.15;;;6.70;;
10144;SDS011;5113;41.822;23.564;2023-09-19T15:39:09;21.83;;;9.55;;
10144;SDS011;5113;41.822;23.564;2023-09-19T15:42:16;15.77;;;7.10;;
10144;SDS011;5113;41.822;23.564;2023-09-19T15:45:24;6.13;;;4.93;;
10144;SDS011;5113;41.822;23.564;2023-09-19T15:48:31;6.03;;;5.40;;
10144;SDS011;5113;41.822;23.564;2023-09-19T15:51:38;6.10;;;5.50;;
10144;SDS011;5113;41.822;23.564;2023-09-19T15:54:45;7.77;;;6.83;;
10144;SDS011;5113;41.822;23.564;2023-09-19T15:57:51;9.57;;;6.60;;
10144;SDS011;5113;41.822;23.564;2023-09-19T16:00:59;6.87;;;5.47;;
10144;SDS011;5113;41.822;23.564;2023-09-19T16:04:11;5.70;;;5.23;;
10144;SDS011;5113;41.822;23.564;2023-09-19T16:07:18;4.90;;;4.40;;
10144;SDS011;5113;41.822;23.564;2023-09-19T16:10:24;6.00;;;4.97;;
10144;SDS011;5113;41.822;23.564;2023-09-19T16:13:31;6.30;;;5.70;;
10144;SDS011;5113;41.822;23.564;2023-09-19T16:16:39;6.67;;;5.90;;
10144;SDS011;5113;41.822;23.564;2023-09-19T16:19:46;6.50;;;5.90;;
10144;SDS011;5113;41.822;23.564;2023-09-19T16:22:52;7.63;;;6.10;;
10144;SDS011;5113;41.822;23.564;2023-09-19T16:26:02;10.53;;;7.27;;
10144;SDS011;5113;41.822;23.564;2023-09-19T16:29:10;7.73;;;6.83;;
10144;SDS011;5113;41.822;23.564;2023-09-19T16:32:18;6.73;;;4.90;;
10144;SDS011;5113;41.822;23.564;2023-09-19T16:35:24;8.73;;;6.83;;
10144;SDS011;5113;41.822;23.564;2023-09-19T16:38:31;10.03;;;6.97;;
10144;SDS011;5113;41.822;23.564;2023-09-19T16:41:37;10.40;;;6.87;;
10144;SDS011;5113;41.822;23.564;2023-09-19T16:44:44;9.97;;;7.17;;
10144;SDS011;5113;41.822;23.564;2023-09-19T16:47:52;8.47;;;6.40;;
10144;SDS011;5113;41.822;23.564;2023-09-19T16:51:00;9.53;;;7.10;;
10144;SDS011;5113;41.822;23.564;2023-09-19T16:54:07;8.53;;;6.27;;
10144;SDS011;5113;41.822;23.564;2023-09-19T16:57:14;19.90;;;7.40;;
10144;SDS011;5113;41.822;23.564;2023-09-19T17:00:20;9.17;;;7.10;;
10144;SDS011;5113;41.822;23.564;2023-09-19T17:03:31;11.23;;;6.70;;
10144;SDS011;5113;41.822;23.564;2023-09-19T17:06:40;8.57;;;6.90;;
10144;SDS011;5113;41.822;23.564;2023-09-19T17:09:51;7.37;;;6.50;;
10144;SDS011;5113;41.822;23.564;2023-09-19T17:12:57;7.47;;;6.77;;
10144;SDS011;5113;41.822;23.564;2023-09-19T17:16:04;9.10;;;6.50;;
10144;SDS011;5113;41.822;23.564;2023-09-19T17:19:13;10.10;;;6.30;;
10144;SDS011;5113;41.822;23.564;2023-09-19T17:22:19;10.93;;;6.80;;
10144;SDS011;5113;41.822;23.564;2023-09-19T17:25:26;10.07;;;6.67;;
10144;SDS011;5113;41.822;23.564;2023-09-19T17:28:35;8.70;;;6.30;;
10144;SDS011;5113;41.822;23.564;2023-09-19T17:31:43;9.50;;;7.23;;
10144;SDS011;5113;41.822;23.564;2023-09-19T17:34:50;13.90;;;8.43;;
10144;SDS011;5113;41.822;23.564;2023-09-19T17:37:57;11.57;;;7.03;;
10144;SDS011;5113;41.822;23.564;2023-09-19T17:41:04;6.97;;;5.70;;
10144;SDS011;5113;41.822;23.564;2023-09-19T17:44:12;6.17;;;5.03;;
10144;SDS011;5113;41.822;23.564;2023-09-19T17:47:19;7.00;;;5.27;;
10144;SDS011;5113;41.822;23.564;2023-09-19T17:50:28;8.07;;;6.67;;
10144;SDS011;5113;41.822;23.564;2023-09-19T17:53:35;10.23;;;7.87;;
10144;SDS011;5113;41.822;23.564;2023-09-19T17:56:42;14.17;;;9.17;;
10144;SDS011;5113;41.822;23.564;2023-09-19T17:59:48;8.07;;;7.00;;
10144;SDS011;5113;41.822;23.564;2023-09-19T18:02:55;12.17;;;6.47;;
10144;SDS011;5113;41.822;23.564;2023-09-19T18:06:04;7.10;;;5.13;;
10144;SDS011;5113;41.822;23.564;2023-09-19T18:09:10;10.70;;;8.17;;
10144;SDS011;5113;41.822;23.564;2023-09-19T18:12:19;12.37;;;7.90;;
10144;SDS011;5113;41.822;23.564;2023-09-19T18:15:25;8.53;;;6.50;;
10144;SDS011;5113;41.822;23.564;2023-09-19T18:18:37;11.37;;;7.10;;
10144;SDS011;5113;41.822;23.564;2023-09-19T18:21:45;6.50;;;5.70;;
10144;SDS011;5113;41.822;23.564;2023-09-19T18:24:51;5.97;;;5.37;;
10144;SDS011;5113;41.822;23.564;2023-09-19T18:27:58;8.23;;;6.27;;
10144;SDS011;5113;41.822;23.564;2023-09-19T18:31:05;10.67;;;7.30;;
10144;SDS011;5113;41.822;23.564;2023-09-19T18:34:12;11.33;;;7.40;;
10144;SDS011;5113;41.822;23.564;2023-09-19T18:37:20;9.53;;;6.50;;
10144;SDS011;5113;41.822;23.564;2023-09-19T18:40:27;7.97;;;6.70;;
10144;SDS011;5113;41.822;23.564;2023-09-19T18:43:34;10.23;;;6.33;;
10144;SDS011;5113;41.822;23.564;2023-09-19T18:46:41;7.03;;;6.33;;
10144;SDS011;5113;41.822;23.564;2023-09-19T18:49:49;7.83;;;6.27;;
10144;SDS011;5113;41.822;23.564;2023-09-19T18:52:57;9.07;;;5.80;;
10144;SDS011;5113;41.822;23.564;2023-09-19T18:56:04;7.63;;;6.73;;
10144;SDS011;5113;41.822;23.564;2023-09-19T18:59:11;7.33;;;6.37;;
10144;SDS011;5113;41.822;23.564;2023-09-19T19:02:19;8.47;;;6.37;;
10144;SDS011;5113;41.822;23.564;2023-09-19T19:05:27;7.70;;;5.93;;
10144;SDS011;5113;41.822;23.564;2023-09-19T19:08:35;9.83;;;6.50;;